sensor_id;sensor_type;location;lat;lon;timestamp;pressure;altitude;pressure_sealevel;temperature;humidity
17785;BME280;9016;53.582;10.062;2023-02-20T00:02:20;101983.09;;;7.46;78.79
17785;BME280;9016;53.582;10.062;2023-02-20T00:04:48;101972.47;;;7.46;77.77
17785;BME280;9016;53.582;10.062;2023-02-20T00:07:16;101974.28;;;7.44;78.00
17785;BME280;9016;53.582;10.062;2023-02-20T00:09:44;101971.75;;;7.40;78.08
17785;BME280;9016;53.582;10.062;2023-02-20T00:12:12;101953.19;;;7.41;78.63
17785;BME280;9016;53.582;10.062;2023-02-20T00:14:43;101951.94;;;7.53;78.46
17785;BME280;9016;53.582;10.062;2023-02-20T00:17:12;101940.34;;;7.57;77.66
17785;BME280;9016;53.582;10.062;2023-02-20T00:19:42;101937.84;;;7.51;78.00
17785;BME280;9016;53.582;10.062;2023-02-20T00:22:10;101929.25;;;7.43;78.16
17785;BME280;9016;53.582;10.062;2023-02-20T00:24:38;101934.34;;;7.50;77.71
17785;BME280;9016;53.582;10.062;2023-02-20T00:27:07;101906.78;;;7.56;78.50
17785;BME280;9016;53.582;10.062;2023-02-20T00:29:37;101902.47;;;7.52;78.45
17785;BME280;9016;53.582;10.062;2023-02-20T00:32:05;101897.91;;;7.57;78.35
17785;BME280;9016;53.582;10.062;2023-02-20T00:34:33;101889.94;;;7.57;78.56
17785;BME280;9016;53.582;10.062;2023-02-20T00:37:02;101876.97;;;7.48;79.53
17785;BME280;9016;53.582;10.062;2023-02-20T00:39:30;101869.81;;;7.50;79.04
17785;BME280;9016;53.582;10.062;2023-02-20T00:41:59;101865.47;;;7.47;79.69
17785;BME280;9016;53.582;10.062;2023-02-20T00:44:27;101862.41;;;7.32;79.60
17785;BME280;9016;53.582;10.062;2023-02-20T00:46:55;101857.66;;;7.43;80.32
17785;BME280;9016;53.582;10.062;2023-02-20T00:49:22;101849.78;;;7.40;79.89
17785;BME280;9016;53.582;10.062;2023-02-20T00:51:50;101842.38;;;7.51;80.11
17785;BME280;9016;53.582;10.062;2023-02-20T00:54:20;101831.81;;;7.49;80.29
17785;BME280;9016;53.582;10.062;2023-02-20T00:56:48;101829.22;;;7.48;80.24
17785;BME280;9016;53.582;10.062;2023-02-20T00:59:16;101814.72;;;7.59;80.61
17785;BME280;9016;53.582;10.062;2023-02-20T01:01:44;101818.16;;;7.63;79.60
17785;BME280;9016;53.582;10.062;2023-02-20T01:04:12;101810.31;;;7.60;79.97
17785;BME280;9016;53.582;10.062;2023-02-20T01:06:40;101816.50;;;7.59;79.27
17785;BME280;9016;53.582;10.062;2023-02-20T01:09:08;101814.00;;;7.54;79.62
17785;BME280;9016;53.582;10.062;2023-02-20T01:11:40;101825.09;;;7.67;79.44
17785;BME280;9016;53.582;10.062;2023-02-20T01:14:08;101819.16;;;7.59;79.95
17785;BME280;9016;53.582;10.062;2023-02-20T01:16:37;101829.00;;;7.55;79.62
17785;BME280;9016;53.582;10.062;2023-02-20T01:19:10;101829.00;;;7.55;79.67
17785;BME280;9016;53.582;10.062;2023-02-20T01:21:38;101825.47;;;7.55;79.67
17785;BME280;9016;53.582;10.062;2023-02-20T01:24:06;101811.91;;;7.65;79.50
17785;BME280;9016;53.582;10.062;2023-02-20T01:26:35;101807.31;;;7.70;79.13
17785;BME280;9016;53.582;10.062;2023-02-20T01:29:04;101800.22;;;7.71;79.63
17785;BME280;9016;53.582;10.062;2023-02-20T01:31:32;101797.47;;;7.74;79.13
17785;BME280;9016;53.582;10.062;2023-02-20T01:34:00;101805.22;;;7.80;79.55
17785;BME280;9016;53.582;10.062;2023-02-20T01:36:28;101795.16;;;7.89;78.71
17785;BME280;9016;53.582;10.062;2023-02-20T01:38:56;101795.22;;;7.88;78.08
17785;BME280;9016;53.582;10.062;2023-02-20T01:41:24;101784.00;;;7.80;78.14
17785;BME280;9016;53.582;10.062;2023-02-20T01:43:52;101784.53;;;7.91;78.60
17785;BME280;9016;53.582;10.062;2023-02-20T01:46:45;101772.28;;;7.87;78.40
17785;BME280;9016;53.582;10.062;2023-02-20T01:49:17;101769.81;;;7.81;79.20
17785;BME280;9016;53.582;10.062;2023-02-20T01:51:50;101761.03;;;7.79;79.78
17785;BME280;9016;53.582;10.062;2023-02-20T01:54:21;101750.34;;;7.80;79.40
17785;BME280;9016;53.582;10.062;2023-02-20T01:56:51;101740.00;;;7.73;80.06
17785;BME280;9016;53.582;10.062;2023-02-20T01:59:22;101735.97;;;7.61;80.18
17785;BME280;9016;53.582;10.062;2023-02-20T02:01:51;101724.13;;;7.71;80.11
17785;BME280;9016;53.582;10.062;2023-02-20T02:04:20;101719.81;;;7.69;80.97
17785;BME280;9016;53.582;10.062;2023-02-20T02:06:51;101711.56;;;7.78;79.97
17785;BME280;9016;53.582;10.062;2023-02-20T02:09:28;101698.38;;;7.75;80.13
17785;BME280;9016;53.582;10.062;2023-02-20T02:12:02;101690.16;;;7.82;80.00
17785;BME280;9016;53.582;10.062;2023-02-20T02:14:30;101690.56;;;7.96;78.70
17785;BME280;9016;53.582;10.062;2023-02-20T02:23:50;101691.09;;;8.06;78.93
17785;BME280;9016;53.582;10.062;2023-02-20T02:26:41;101679.97;;;7.95;78.06
17785;BME280;9016;53.582;10.062;2023-02-20T02:35:49;101680.22;;;8.14;78.10
17785;BME280;9016;53.582;10.062;2023-02-20T02:38:22;101688.03;;;8.18;77.79
17785;BME280;9016;53.582;10.062;2023-02-20T02:40:56;101688.59;;;8.28;78.08
17785;BME280;9016;53.582;10.062;2023-02-20T02:43:35;101702.88;;;8.24;78.31
17785;BME280;9016;53.582;10.062;2023-02-20T02:46:07;101694.03;;;8.23;79.13
17785;BME280;9016;53.582;10.062;2023-02-20T02:48:40;101683.63;;;8.17;79.68
17785;BME280;9016;53.582;10.062;2023-02-20T02:51:17;101669.09;;;8.29;78.98
17785;BME280;9016;53.582;10.062;2023-02-20T02:54:06;101662.00;;;8.29;79.06
17785;BME280;9016;53.582;10.062;2023-02-20T02:56:34;101651.38;;;8.29;79.34
17785;BME280;9016;53.582;10.062;2023-02-20T02:59:04;101645.81;;;8.11;80.56
17785;BME280;9016;53.582;10.062;2023-02-20T03:01:37;101638.94;;;8.05;81.17
17785;BME280;9016;53.582;10.062;2023-02-20T03:04:06;101633.78;;;8.00;82.26
17785;BME280;9016;53.582;10.062;2023-02-20T03:06:39;101632.22;;;8.20;82.31
17785;BME280;9016;53.582;10.062;2023-02-20T03:09:13;101637.16;;;8.30;80.80
17785;BME280;9016;53.582;10.062;2023-02-20T03:11:41;101634.50;;;8.30;81.66
17785;BME280;9016;53.582;10.062;2023-02-20T03:14:12;101627.03;;;8.17;82.11
17785;BME280;9016;53.582;10.062;2023-02-20T03:17:07;101641.88;;;8.22;82.10
17785;BME280;9016;53.582;10.062;2023-02-20T03:19:40;101629.25;;;8.29;81.93
17785;BME280;9016;53.582;10.062;2023-02-20T03:22:14;101627.78;;;8.20;82.17
17785;BME280;9016;53.582;10.062;2023-02-20T03:24:48;101627.66;;;8.23;82.73
17785;BME280;9016;53.582;10.062;2023-02-20T03:27:31;101631.91;;;8.29;81.86
17785;BME280;9016;53.582;10.062;2023-02-20T03:30:13;101623.78;;;8.33;82.17
17785;BME280;9016;53.582;10.062;2023-02-20T03:32:43;101623.06;;;8.28;81.83
17785;BME280;9016;53.582;10.062;2023-02-20T03:35:33;101626.44;;;8.33;81.52
17785;BME280;9016;53.582;10.062;2023-02-20T03:38:23;101627.13;;;8.38;81.83
17785;BME280;9016;53.582;10.062;2023-02-20T03:41:10;101612.22;;;8.34;81.52
17785;BME280;9016;53.582;10.062;2023-02-20T03:43:59;101613.78;;;8.40;82.25
17785;BME280;9016;53.582;10.062;2023-02-20T03:46:30;101604.72;;;8.45;81.71
17785;BME280;9016;53.582;10.062;2023-02-20T03:49:03;101592.09;;;8.52;80.86
17785;BME280;9016;53.582;10.062;2023-02-20T03:51:32;101597.00;;;8.62;80.12
17785;BME280;9016;53.582;10.062;2023-02-20T03:54:18;101594.56;;;8.56;80.75
17785;BME280;9016;53.582;10.062;2023-02-20T03:56:49;101615.72;;;8.59;80.45
17785;BME280;9016;53.582;10.062;2023-02-20T03:59:23;101617.03;;;8.48;80.13
17785;BME280;9016;53.582;10.062;2023-02-20T04:01:55;101613.28;;;8.53;80.79
17785;BME280;9016;53.582;10.062;2023-02-20T04:04:28;101604.22;;;8.59;79.96
17785;BME280;9016;53.582;10.062;2023-02-20T04:06:58;101604.91;;;8.64;79.66
17785;BME280;9016;53.582;10.062;2023-02-20T04:09:32;101600.00;;;8.53;80.82
17785;BME280;9016;53.582;10.062;2023-02-20T04:12:06;101586.72;;;8.53;80.01
17785;BME280;9016;53.582;10.062;2023-02-20T04:14:36;101578.75;;;8.53;80.75
17785;BME280;9016;53.582;10.062;2023-02-20T04:17:09;101571.81;;;8.49;80.22
17785;BME280;9016;53.582;10.062;2023-02-20T04:19:39;101567.09;;;8.34;81.05
17785;BME280;9016;53.582;10.062;2023-02-20T04:22:11;101560.22;;;8.29;82.02
17785;BME280;9016;53.582;10.062;2023-02-20T04:24:47;101549.03;;;8.19;82.59
17785;BME280;9016;53.582;10.062;2023-02-20T04:27:17;101545.03;;;8.32;82.52
17785;BME280;9016;53.582;10.062;2023-02-20T04:29:45;101533.03;;;8.22;82.24
17785;BME280;9016;53.582;10.062;2023-02-20T04:32:14;101541.00;;;8.22;82.92
17785;BME280;9016;53.582;10.062;2023-02-20T04:34:42;101531.09;;;8.27;82.36
17785;BME280;9016;53.582;10.062;2023-02-20T04:37:11;101530.44;;;8.21;82.22
17785;BME280;9016;53.582;10.062;2023-02-20T04:39:40;101534.72;;;8.25;82.06
17785;BME280;9016;53.582;10.062;2023-02-20T04:42:09;101519.91;;;8.18;82.89
17785;BME280;9016;53.582;10.062;2023-02-20T04:44:37;101517.94;;;8.23;82.86
17785;BME280;9016;53.582;10.062;2023-02-20T04:47:07;101506.47;;;8.22;83.07
17785;BME280;9016;53.582;10.062;2023-02-20T04:49:38;101503.56;;;8.30;82.35
17785;BME280;9016;53.582;10.062;2023-02-20T04:52:09;101494.59;;;8.32;82.48
17785;BME280;9016;53.582;10.062;2023-02-20T04:54:36;101506.16;;;8.31;82.53
17785;BME280;9016;53.582;10.062;2023-02-20T04:57:04;101501.16;;;8.22;84.08
17785;BME280;9016;53.582;10.062;2023-02-20T04:59:34;101490.53;;;8.22;83.05
17785;BME280;9016;53.582;10.062;2023-02-20T05:02:01;101499.47;;;8.20;83.14
17785;BME280;9016;53.582;10.062;2023-02-20T05:04:29;101508.97;;;8.27;83.34
17785;BME280;9016;53.582;10.062;2023-02-20T05:06:57;101502.19;;;8.18;83.34
17785;BME280;9016;53.582;10.062;2023-02-20T05:09:26;101512.63;;;8.23;83.62
17785;BME280;9016;53.582;10.062;2023-02-20T05:11:54;101509.69;;;8.32;83.46
17785;BME280;9016;53.582;10.062;2023-02-20T05:14:22;101515.09;;;8.29;82.65
17785;BME280;9016;53.582;10.062;2023-02-20T05:16:51;101503.00;;;8.20;83.14
17785;BME280;9016;53.582;10.062;2023-02-20T05:19:19;101500.09;;;8.28;83.79
17785;BME280;9016;53.582;10.062;2023-02-20T05:21:47;101489.56;;;8.25;83.58
17785;BME280;9016;53.582;10.062;2023-02-20T05:24:32;101469.66;;;8.36;83.50
17785;BME280;9016;53.582;10.062;2023-02-20T05:27:00;101475.59;;;8.43;83.64
17785;BME280;9016;53.582;10.062;2023-02-20T05:29:28;101469.78;;;8.33;82.64
17785;BME280;9016;53.582;10.062;2023-02-20T05:31:57;101466.13;;;8.36;83.20
17785;BME280;9016;53.582;10.062;2023-02-20T05:34:25;101459.97;;;8.35;83.54
17785;BME280;9016;53.582;10.062;2023-02-20T05:36:53;101442.44;;;8.31;83.43
17785;BME280;9016;53.582;10.062;2023-02-20T05:39:22;101452.16;;;8.31;83.00
17785;BME280;9016;53.582;10.062;2023-02-20T05:41:50;101440.44;;;8.36;83.56
17785;BME280;9016;53.582;10.062;2023-02-20T05:44:18;101430.38;;;8.44;83.42
17785;BME280;9016;53.582;10.062;2023-02-20T05:46:46;101431.50;;;8.39;82.57
17785;BME280;9016;53.582;10.062;2023-02-20T05:49:17;101415.88;;;8.31;83.25
17785;BME280;9016;53.582;10.062;2023-02-20T05:51:45;101413.28;;;8.30;84.36
17785;BME280;9016;53.582;10.062;2023-02-20T05:54:15;101409.38;;;8.38;83.89
17785;BME280;9016;53.582;10.062;2023-02-20T05:56:45;101414.03;;;8.33;84.09
17785;BME280;9016;53.582;10.062;2023-02-20T05:59:16;101407.28;;;8.25;84.32
17785;BME280;9016;53.582;10.062;2023-02-20T06:01:44;101414.88;;;8.34;84.95
17785;BME280;9016;53.582;10.062;2023-02-20T06:04:12;101403.41;;;8.33;84.28
17785;BME280;9016;53.582;10.062;2023-02-20T06:06:42;101397.34;;;8.30;84.32
17785;BME280;9016;53.582;10.062;2023-02-20T06:09:11;101387.66;;;8.29;85.17
17785;BME280;9016;53.582;10.062;2023-02-20T06:11:48;101383.28;;;8.28;85.60
17785;BME280;9016;53.582;10.062;2023-02-20T06:14:17;101382.41;;;8.27;85.36
17785;BME280;9016;53.582;10.062;2023-02-20T06:16:46;101381.84;;;8.41;85.36
17785;BME280;9016;53.582;10.062;2023-02-20T06:19:17;101384.13;;;8.50;85.32
17785;BME280;9016;53.582;10.062;2023-02-20T06:21:50;101383.38;;;8.46;84.85
17785;BME280;9016;53.582;10.062;2023-02-20T06:24:19;101384.31;;;8.45;84.32
17785;BME280;9016;53.582;10.062;2023-02-20T06:26:48;101395.31;;;8.36;84.74
17785;BME280;9016;53.582;10.062;2023-02-20T06:29:16;101389.81;;;8.41;85.16
17785;BME280;9016;53.582;10.062;2023-02-20T06:31:45;101390.63;;;8.43;84.65
17785;BME280;9016;53.582;10.062;2023-02-20T06:34:15;101384.75;;;8.35;84.71
17785;BME280;9016;53.582;10.062;2023-02-20T06:36:43;101382.97;;;8.35;85.86
17785;BME280;9016;53.582;10.062;2023-02-20T06:39:13;101389.94;;;8.38;85.80
17785;BME280;9016;53.582;10.062;2023-02-20T06:41:41;101395.00;;;8.44;86.00
17785;BME280;9016;53.582;10.062;2023-02-20T06:44:10;101393.94;;;8.48;85.46
17785;BME280;9016;53.582;10.062;2023-02-20T06:46:37;101397.19;;;8.54;85.72
17785;BME280;9016;53.582;10.062;2023-02-20T06:49:06;101394.91;;;8.67;84.78
17785;BME280;9016;53.582;10.062;2023-02-20T06:51:34;101396.88;;;8.62;84.84
17785;BME280;9016;53.582;10.062;2023-02-20T06:54:03;101403.41;;;8.75;84.96
17785;BME280;9016;53.582;10.062;2023-02-20T06:56:34;101399.78;;;8.77;84.83
17785;BME280;9016;53.582;10.062;2023-02-20T06:59:04;101392.69;;;8.78;85.19
17785;BME280;9016;53.582;10.062;2023-02-20T07:01:37;101383.63;;;8.82;83.94
17785;BME280;9016;53.582;10.062;2023-02-20T07:04:14;101394.06;;;8.86;83.91
17785;BME280;9016;53.582;10.062;2023-02-20T07:06:42;101389.94;;;8.79;85.02
17785;BME280;9016;53.582;10.062;2023-02-20T07:09:10;101386.50;;;8.77;85.56
17785;BME280;9016;53.582;10.062;2023-02-20T07:11:43;101401.09;;;8.87;85.09
17785;BME280;9016;53.582;10.062;2023-02-20T07:14:14;101395.75;;;8.89;84.55
17785;BME280;9016;53.582;10.062;2023-02-20T07:16:45;101398.81;;;9.00;84.95
17785;BME280;9016;53.582;10.062;2023-02-20T07:19:13;101404.69;;;8.86;85.21
17785;BME280;9016;53.582;10.062;2023-02-20T07:21:41;101407.53;;;8.82;85.36
17785;BME280;9016;53.582;10.062;2023-02-20T07:24:12;101399.78;;;8.97;85.90
17785;BME280;9016;53.582;10.062;2023-02-20T07:26:40;101397.53;;;9.09;85.23
17785;BME280;9016;53.582;10.062;2023-02-20T07:29:12;101391.81;;;9.18;85.02
17785;BME280;9016;53.582;10.062;2023-02-20T07:31:40;101390.28;;;9.12;85.54
17785;BME280;9016;53.582;10.062;2023-02-20T07:34:08;101404.50;;;9.11;85.62
17785;BME280;9016;53.582;10.062;2023-02-20T07:36:36;101399.91;;;9.15;86.21
17785;BME280;9016;53.582;10.062;2023-02-20T07:39:04;101381.25;;;9.16;85.34
17785;BME280;9016;53.582;10.062;2023-02-20T07:41:34;101382.31;;;9.12;86.11
17785;BME280;9016;53.582;10.062;2023-02-20T07:44:08;101383.16;;;9.13;86.47
17785;BME280;9016;53.582;10.062;2023-02-20T07:46:42;101368.81;;;9.17;87.12
17785;BME280;9016;53.582;10.062;2023-02-20T07:49:10;101373.19;;;9.18;87.31
17785;BME280;9016;53.582;10.062;2023-02-20T07:51:39;101357.38;;;9.15;87.09
17785;BME280;9016;53.582;10.062;2023-02-20T07:54:06;101373.25;;;9.16;87.19
17785;BME280;9016;53.582;10.062;2023-02-20T07:56:34;101365.38;;;9.15;87.18
17785;BME280;9016;53.582;10.062;2023-02-20T07:59:02;101357.38;;;9.15;87.70
17785;BME280;9016;53.582;10.062;2023-02-20T08:01:30;101339.16;;;9.26;87.50
17785;BME280;9016;53.582;10.062;2023-02-20T08:04:00;101353.81;;;9.34;86.73
17785;BME280;9016;53.582;10.062;2023-02-20T08:06:28;101340.53;;;9.34;87.22
17785;BME280;9016;53.582;10.062;2023-02-20T08:08:56;101338.84;;;9.32;87.24
17785;BME280;9016;53.582;10.062;2023-02-20T08:11:24;101324.72;;;9.31;87.94
17785;BME280;9016;53.582;10.062;2023-02-20T08:13:52;101320.22;;;9.13;88.98
17785;BME280;9016;53.582;10.062;2023-02-20T08:16:21;101333.31;;;9.18;89.63
17785;BME280;9016;53.582;10.062;2023-02-20T08:18:50;101337.47;;;9.23;89.00
17785;BME280;9016;53.582;10.062;2023-02-20T08:21:19;101338.44;;;9.22;89.32
17785;BME280;9016;53.582;10.062;2023-02-20T08:23:47;101328.78;;;9.20;89.70
17785;BME280;9016;53.582;10.062;2023-02-20T08:26:15;101339.09;;;9.27;90.23
17785;BME280;9016;53.582;10.062;2023-02-20T08:28:45;101325.06;;;9.24;89.87
17785;BME280;9016;53.582;10.062;2023-02-20T08:31:13;101320.19;;;9.33;89.12
17785;BME280;9016;53.582;10.062;2023-02-20T08:33:57;101320.97;;;9.35;89.29
17785;BME280;9016;53.582;10.062;2023-02-20T08:36:26;101313.13;;;9.32;89.56
17785;BME280;9016;53.582;10.062;2023-02-20T08:38:55;101303.84;;;9.41;89.44
17785;BME280;9016;53.582;10.062;2023-02-20T08:41:23;101301.16;;;9.42;89.65
17785;BME280;9016;53.582;10.062;2023-02-20T08:43:51;101301.41;;;9.36;90.11
17785;BME280;9016;53.582;10.062;2023-02-20T08:46:18;101292.38;;;9.40;90.19
17785;BME280;9016;53.582;10.062;2023-02-20T08:48:46;101294.97;;;9.42;90.42
17785;BME280;9016;53.582;10.062;2023-02-20T08:51:17;101300.47;;;9.37;90.39
17785;BME280;9016;53.582;10.062;2023-02-20T08:53:46;101300.03;;;9.46;90.78
17785;BME280;9016;53.582;10.062;2023-02-20T08:56:17;101296.22;;;9.52;90.24
17785;BME280;9016;53.582;10.062;2023-02-20T08:58:45;101282.28;;;9.47;91.36
17785;BME280;9016;53.582;10.062;2023-02-20T09:01:13;101292.28;;;9.42;92.16
17785;BME280;9016;53.582;10.062;2023-02-20T09:03:41;101270.03;;;9.44;93.62
17785;BME280;9016;53.582;10.062;2023-02-20T09:06:09;101268.56;;;9.56;92.78
17785;BME280;9016;53.582;10.062;2023-02-20T09:08:37;101258.72;;;9.58;93.19
17785;BME280;9016;53.582;10.062;2023-02-20T09:11:07;101246.78;;;9.48;93.98
17785;BME280;9016;53.582;10.062;2023-02-20T09:13:40;101243.09;;;9.50;95.05
17785;BME280;9016;53.582;10.062;2023-02-20T09:16:08;101235.91;;;9.52;95.46
17785;BME280;9016;53.582;10.062;2023-02-20T09:18:37;101242.19;;;9.51;96.92
17785;BME280;9016;53.582;10.062;2023-02-20T09:21:07;101244.69;;;9.54;97.29
17785;BME280;9016;53.582;10.062;2023-02-20T09:23:35;101235.63;;;9.58;98.17
17785;BME280;9016;53.582;10.062;2023-02-20T09:26:04;101241.47;;;9.66;97.92
17785;BME280;9016;53.582;10.062;2023-02-20T09:28:33;101243.34;;;9.64;97.97
17785;BME280;9016;53.582;10.062;2023-02-20T09:31:02;101234.84;;;9.56;99.52
17785;BME280;9016;53.582;10.062;2023-02-20T09:33:29;101238.75;;;9.49;99.45
17785;BME280;9016;53.582;10.062;2023-02-20T09:35:57;101238.75;;;9.49;100.00
17785;BME280;9016;53.582;10.062;2023-02-20T09:38:25;101236.50;;;9.59;100.00
17785;BME280;9016;53.582;10.062;2023-02-20T09:40:57;101246.44;;;9.55;100.00
17785;BME280;9016;53.582;10.062;2023-02-20T09:43:38;101239.00;;;9.62;100.00
17785;BME280;9016;53.582;10.062;2023-02-20T09:46:13;101228.66;;;9.56;100.00
17785;BME280;9016;53.582;10.062;2023-02-20T09:48:52;101231.56;;;9.51;100.00
17785;BME280;9016;53.582;10.062;2023-02-20T09:51:24;101222.34;;;9.58;100.00
17785;BME280;9016;53.582;10.062;2023-02-20T09:53:57;101222.09;;;9.63;100.00
17785;BME280;9016;53.582;10.062;2023-02-20T09:56:28;101209.56;;;9.65;100.00
17785;BME280;9016;53.582;10.062;2023-02-20T09:59:03;101205.75;;;9.70;100.00
17785;BME280;9016;53.582;10.062;2023-02-20T10:01:34;101197.97;;;9.84;100.00
17785;BME280;9016;53.582;10.062;2023-02-20T10:04:09;101218.31;;;9.85;100.00
17785;BME280;9016;53.582;10.062;2023-02-20T10:06:38;101224.59;;;9.84;100.00
17785;BME280;9016;53.582;10.062;2023-02-20T10:09:10;101224.22;;;9.92;99.80
17785;BME280;9016;53.582;10.062;2023-02-20T10:11:52;101221.53;;;9.92;99.48
17785;BME280;9016;53.582;10.062;2023-02-20T10:14:37;101216.38;;;10.06;99.46
17785;BME280;9016;53.582;10.062;2023-02-20T10:17:28;101219.69;;;10.11;98.00
17785;BME280;9016;53.582;10.062;2023-02-20T10:20:02;101227.69;;;10.11;97.96
17785;BME280;9016;53.582;10.062;2023-02-20T10:22:45;101223.84;;;10.17;96.98
17785;BME280;9016;53.582;10.062;2023-02-20T10:25:19;101222.22;;;10.14;97.40
17785;BME280;9016;53.582;10.062;2023-02-20T10:27:52;101215.84;;;10.17;97.72
17785;BME280;9016;53.582;10.062;2023-02-20T10:30:28;101205.53;;;10.11;97.21
17785;BME280;9016;53.582;10.062;2023-02-20T10:33:02;101206.69;;;10.22;97.69
17785;BME280;9016;53.582;10.062;2023-02-20T10:35:34;101204.28;;;10.35;97.82
17785;BME280;9016;53.582;10.062;2023-02-20T10:38:08;101193.16;;;10.44;96.22
17785;BME280;9016;53.582;10.062;2023-02-20T10:40:39;101204.25;;;10.52;96.61
17785;BME280;9016;53.582;10.062;2023-02-20T10:43:13;101193.66;;;10.50;95.45
17785;BME280;9016;53.582;10.062;2023-02-20T10:45:50;101203.31;;;10.53;94.92
17785;BME280;9016;53.582;10.062;2023-02-20T10:48:22;101200.47;;;10.56;95.40
17785;BME280;9016;53.582;10.062;2023-02-20T10:51:02;101197.25;;;10.66;94.65
17785;BME280;9016;53.582;10.062;2023-02-20T10:53:37;101190.66;;;10.73;94.28
17785;BME280;9016;53.582;10.062;2023-02-20T10:56:09;101200.59;;;10.70;94.22
17785;BME280;9016;53.582;10.062;2023-02-20T10:58:45;101204.91;;;10.72;93.67
17785;BME280;9016;53.582;10.062;2023-02-20T11:01:20;101196.22;;;10.69;93.13
17785;BME280;9016;53.582;10.062;2023-02-20T11:03:55;101198.81;;;10.70;93.41
17785;BME280;9016;53.582;10.062;2023-02-20T11:06:29;101205.69;;;10.74;93.41
17785;BME280;9016;53.582;10.062;2023-02-20T11:08:58;101195.81;;;10.76;92.80
17785;BME280;9016;53.582;10.062;2023-02-20T11:11:31;101197.47;;;10.79;93.24
17785;BME280;9016;53.582;10.062;2023-02-20T11:14:04;101206.22;;;10.81;93.11
17785;BME280;9016;53.582;10.062;2023-02-20T11:16:41;101213.47;;;10.79;92.87
17785;BME280;9016;53.582;10.062;2023-02-20T11:19:15;101201.84;;;10.80;92.69
17785;BME280;9016;53.582;10.062;2023-02-20T11:21:47;101199.28;;;10.94;91.93
17785;BME280;9016;53.582;10.062;2023-02-20T11:24:28;101186.72;;;10.96;92.31
17785;BME280;9016;53.582;10.062;2023-02-20T11:27:08;101195.69;;;10.95;91.73
17785;BME280;9016;53.582;10.062;2023-02-20T11:29:40;101195.19;;;11.04;91.49
17785;BME280;9016;53.582;10.062;2023-02-20T11:32:30;101187.19;;;11.04;90.70
17785;BME280;9016;53.582;10.062;2023-02-20T11:35:22;101206.34;;;11.11;90.14
17785;BME280;9016;53.582;10.062;2023-02-20T11:38:28;101184.34;;;11.07;89.84
17785;BME280;9016;53.582;10.062;2023-02-20T11:41:20;101177.38;;;11.05;89.78
17785;BME280;9016;53.582;10.062;2023-02-20T11:44:21;101177.19;;;11.08;89.45
17785;BME280;9016;53.582;10.062;2023-02-20T11:47:08;101176.78;;;11.15;89.22
17785;BME280;9016;53.582;10.062;2023-02-20T11:49:38;101187.28;;;11.18;89.07
17785;BME280;9016;53.582;10.062;2023-02-20T11:52:08;101178.94;;;11.24;88.28
17785;BME280;9016;53.582;10.062;2023-02-20T11:54:36;101165.16;;;11.32;87.88
17785;BME280;9016;53.582;10.062;2023-02-20T11:57:15;101159.94;;;11.30;87.19
17785;BME280;9016;53.582;10.062;2023-02-20T11:59:46;101156.28;;;11.31;87.33
17785;BME280;9016;53.582;10.062;2023-02-20T12:02:26;101152.16;;;11.41;86.28
17785;BME280;9016;53.582;10.062;2023-02-20T12:05:17;101145.25;;;11.53;85.92
17785;BME280;9016;53.582;10.062;2023-02-20T12:07:54;101150.91;;;11.62;85.02
17785;BME280;9016;53.582;10.062;2023-02-20T12:10:40;101140.13;;;11.65;84.78
17785;BME280;9016;53.582;10.062;2023-02-20T12:13:12;101135.53;;;11.52;85.11
17785;BME280;9016;53.582;10.062;2023-02-20T12:15:41;101140.16;;;11.64;85.20
17785;BME280;9016;53.582;10.062;2023-02-20T12:18:43;101126.06;;;11.62;83.81
17785;BME280;9016;53.582;10.062;2023-02-20T12:21:34;101128.78;;;11.60;83.84
17785;BME280;9016;53.582;10.062;2023-02-20T12:24:28;101127.53;;;11.52;84.03
17785;BME280;9016;53.582;10.062;2023-02-20T12:27:02;101133.97;;;11.63;84.02
17785;BME280;9016;53.582;10.062;2023-02-20T12:29:41;101128.47;;;11.66;83.60
17785;BME280;9016;53.582;10.062;2023-02-20T12:32:38;101134.78;;;11.65;83.52
17785;BME280;9016;53.582;10.062;2023-02-20T12:35:24;101123.16;;;11.51;83.90
17785;BME280;9016;53.582;10.062;2023-02-20T12:38:04;101124.59;;;11.56;83.35
17785;BME280;9016;53.582;10.062;2023-02-20T12:40:50;101121.66;;;11.61;82.94
17785;BME280;9016;53.582;10.062;2023-02-20T12:43:31;101125.91;;;11.65;82.61
17785;BME280;9016;53.582;10.062;2023-02-20T12:46:08;101121.91;;;11.72;82.69
17785;BME280;9016;53.582;10.062;2023-02-20T12:48:49;101116.69;;;11.70;82.91
17785;BME280;9016;53.582;10.062;2023-02-20T12:51:27;101109.69;;;11.68;82.84
17785;BME280;9016;53.582;10.062;2023-02-20T12:54:23;101116.94;;;11.66;82.42
17785;BME280;9016;53.582;10.062;2023-02-20T12:57:05;101108.00;;;11.67;82.33
17785;BME280;9016;53.582;10.062;2023-02-20T12:59:40;101106.19;;;11.67;82.42
17785;BME280;9016;53.582;10.062;2023-02-20T13:02:19;101110.22;;;11.74;82.68
17785;BME280;9016;53.582;10.062;2023-02-20T13:05:10;101118.66;;;11.67;82.93
17785;BME280;9016;53.582;10.062;2023-02-20T13:07:44;101116.09;;;11.65;82.70
17785;BME280;9016;53.582;10.062;2023-02-20T13:10:16;101109.53;;;11.55;82.80
17785;BME280;9016;53.582;10.062;2023-02-20T13:12:47;101127.19;;;11.58;82.87
17785;BME280;9016;53.582;10.062;2023-02-20T13:15:24;101124.66;;;11.55;83.28
17785;BME280;9016;53.582;10.062;2023-02-20T13:17:57;101114.41;;;11.63;83.52
17785;BME280;9016;53.582;10.062;2023-02-20T13:20:31;101112.00;;;11.74;83.11
17785;BME280;9016;53.582;10.062;2023-02-20T13:23:02;101111.56;;;11.81;82.76
17785;BME280;9016;53.582;10.062;2023-02-20T13:25:42;101107.03;;;11.68;82.62
17785;BME280;9016;53.582;10.062;2023-02-20T13:28:29;101131.38;;;11.77;83.13
17785;BME280;9016;53.582;10.062;2023-02-20T13:31:14;101122.22;;;11.67;83.03
17785;BME280;9016;53.582;10.062;2023-02-20T13:33:44;101113.44;;;11.64;83.31
17785;BME280;9016;53.582;10.062;2023-02-20T13:36:35;101104.78;;;11.76;83.20
17785;BME280;9016;53.582;10.062;2023-02-20T13:42:35;101107.53;;;11.74;83.51
17785;BME280;9016;53.582;10.062;2023-02-20T13:45:37;101111.75;;;11.78;83.10